sensor_id;sensor_type;location;lat;lon;timestamp;temperature;humidity
6810;DHT22;3443;48.812;9.112;2023-02-18T00:01:53;11.70;99.90
6810;DHT22;3443;48.812;9.112;2023-02-18T00:04:19;11.70;99.90
6810;DHT22;3443;48.812;9.112;2023-02-18T00:06:45;11.60;99.90
6810;DHT22;3443;48.812;9.112;2023-02-18T00:09:10;11.70;99.90
6810;DHT22;3443;48.812;9.112;2023-02-18T00:11:36;11.70;99.90
6810;DHT22;3443;48.812;9.112;2023-02-18T00:14:06;11.70;99.90
6810;DHT22;3443;48.812;9.112;2023-02-18T00:16:32;11.60;99.90
6810;DHT22;3443;48.812;9.112;2023-02-18T00:19:00;11.60;99.90
6810;DHT22;3443;48.812;9.112;2023-02-18T00:21:26;11.60;99.90
6810;DHT22;3443;48.812;9.112;2023-02-18T00:23:52;11.60;99.90
6810;DHT22;3443;48.812;9.112;2023-02-18T00:26:18;11.60;99.90
6810;DHT22;3443;48.812;9.112;2023-02-18T00:28:45;11.60;99.90
6810;DHT22;3443;48.812;9.112;2023-02-18T00:31:18;11.60;99.90
6810;DHT22;3443;48.812;9.112;2023-02-18T00:33:44;11.60;99.90
6810;DHT22;3443;48.812;9.112;2023-02-18T00:36:13;11.70;99.90
6810;DHT22;3443;48.812;9.112;2023-02-18T00:38:50;11.70;99.90
6810;DHT22;3443;48.812;9.112;2023-02-18T00:41:17;11.70;99.90
6810;DHT22;3443;48.812;9.112;2023-02-18T00:43:43;11.80;99.90
6810;DHT22;3443;48.812;9.112;2023-02-18T00:46:08;11.60;99.90
6810;DHT22;3443;48.812;9.112;2023-02-18T00:48:34;11.60;99.90
6810;DHT22;3443;48.812;9.112;2023-02-18T00:51:01;11.60;99.90
6810;DHT22;3443;48.812;9.112;2023-02-18T00:53:28;11.60;99.90
6810;DHT22;3443;48.812;9.112;2023-02-18T00:55:54;11.60;99.90
6810;DHT22;3443;48.812;9.112;2023-02-18T00:58:20;11.60;99.90
6810;DHT22;3443;48.812;9.112;2023-02-18T01:00:46;11.60;99.90
6810;DHT22;3443;48.812;9.112;2023-02-18T01:03:12;11.70;99.90
6810;DHT22;3443;48.812;9.112;2023-02-18T01:05:38;11.70;99.90
6810;DHT22;3443;48.812;9.112;2023-02-18T01:08:05;11.70;99.90
6810;DHT22;3443;48.812;9.112;2023-02-18T01:10:31;11.70;99.90
6810;DHT22;3443;48.812;9.112;2023-02-18T01:12:57;11.70;99.90
6810;DHT22;3443;48.812;9.112;2023-02-18T01:15:22;11.60;99.90
6810;DHT22;3443;48.812;9.112;2023-02-18T01:17:48;11.60;99.90
6810;DHT22;3443;48.812;9.112;2023-02-18T01:20:16;11.60;99.90
6810;DHT22;3443;48.812;9.112;2023-02-18T01:22:42;11.50;99.90
6810;DHT22;3443;48.812;9.112;2023-02-18T01:25:09;11.40;99.90
6810;DHT22;3443;48.812;9.112;2023-02-18T01:27:35;11.40;99.90
6810;DHT22;3443;48.812;9.112;2023-02-18T01:30:02;11.40;99.90
6810;DHT22;3443;48.812;9.112;2023-02-18T01:32:28;11.40;99.90
6810;DHT22;3443;48.812;9.112;2023-02-18T01:34:53;11.30;99.90
6810;DHT22;3443;48.812;9.112;2023-02-18T01:37:19;11.30;99.90
6810;DHT22;3443;48.812;9.112;2023-02-18T01:39:44;11.20;99.90
6810;DHT22;3443;48.812;9.112;2023-02-18T01:42:19;11.20;99.90
6810;DHT22;3443;48.812;9.112;2023-02-18T01:44:46;11.20;99.90
6810;DHT22;3443;48.812;9.112;2023-02-18T01:47:13;11.10;99.90
6810;DHT22;3443;48.812;9.112;2023-02-18T01:49:39;11.20;99.90
6810;DHT22;3443;48.812;9.112;2023-02-18T01:52:09;11.10;99.90
6810;DHT22;3443;48.812;9.112;2023-02-18T01:54:39;11.20;99.90
6810;DHT22;3443;48.812;9.112;2023-02-18T01:57:11;11.20;99.90
6810;DHT22;3443;48.812;9.112;2023-02-18T01:59:40;11.20;99.90
6810;DHT22;3443;48.812;9.112;2023-02-18T02:02:11;11.20;99.90
6810;DHT22;3443;48.812;9.112;2023-02-18T02:04:38;11.20;99.90
6810;DHT22;3443;48.812;9.112;2023-02-18T02:07:04;11.20;99.90
6810;DHT22;3443;48.812;9.112;2023-02-18T02:09:31;11.20;99.90
6810;DHT22;3443;48.812;9.112;2023-02-18T02:12:05;11.20;99.90
6810;DHT22;3443;48.812;9.112;2023-02-18T02:14:46;11.20;99.90
6810;DHT22;3443;48.812;9.112;2023-02-18T02:23:02;11.20;99.90
6810;DHT22;3443;48.812;9.112;2023-02-18T02:34:45;11.20;99.90
6810;DHT22;3443;48.812;9.112;2023-02-18T02:37:37;11.20;99.90
6810;DHT22;3443;48.812;9.112;2023-02-18T02:40:15;11.20;99.90
6810;DHT22;3443;48.812;9.112;2023-02-18T02:43:12;11.20;99.90
6810;DHT22;3443;48.812;9.112;2023-02-18T02:53:42;11.20;99.90
6810;DHT22;3443;48.812;9.112;2023-02-18T02:56:16;11.20;99.90
6810;DHT22;3443;48.812;9.112;2023-02-18T02:58:44;11.20;99.90
6810;DHT22;3443;48.812;9.112;2023-02-18T03:01:34;11.20;99.90
6810;DHT22;3443;48.812;9.112;2023-02-18T03:09:48;11.20;99.90
6810;DHT22;3443;48.812;9.112;2023-02-18T03:12:28;11.20;99.90
6810;DHT22;3443;48.812;9.112;2023-02-18T03:17:45;11.10;99.90
6810;DHT22;3443;48.812;9.112;2023-02-18T03:20:21;11.10;99.90
6810;DHT22;3443;48.812;9.112;2023-02-18T03:22:50;11.10;99.90
6810;DHT22;3443;48.812;9.112;2023-02-18T03:25:17;11.10;99.90
6810;DHT22;3443;48.812;9.112;2023-02-18T03:27:49;11.10;99.90
6810;DHT22;3443;48.812;9.112;2023-02-18T03:30:23;11.10;99.90
6810;DHT22;3443;48.812;9.112;2023-02-18T03:32:55;11.00;99.90
6810;DHT22;3443;48.812;9.112;2023-02-18T03:35:22;11.00;99.90
6810;DHT22;3443;48.812;9.112;2023-02-18T03:37:55;11.00;99.90
6810;DHT22;3443;48.812;9.112;2023-02-18T03:40:39;11.00;99.90
6810;DHT22;3443;48.812;9.112;2023-02-18T03:43:04;10.90;99.90
6810;DHT22;3443;48.812;9.112;2023-02-18T03:45:30;10.90;99.90
6810;DHT22;3443;48.812;9.112;2023-02-18T03:47:55;10.90;99.90
6810;DHT22;3443;48.812;9.112;2023-02-18T03:50:21;10.80;99.90
6810;DHT22;3443;48.812;9.112;2023-02-18T03:52:47;10.80;99.90
6810;DHT22;3443;48.812;9.112;2023-02-18T03:55:13;10.80;99.90
6810;DHT22;3443;48.812;9.112;2023-02-18T03:57:38;10.80;99.90
6810;DHT22;3443;48.812;9.112;2023-02-18T04:00:05;10.80;99.90
6810;DHT22;3443;48.812;9.112;2023-02-18T04:02:32;10.70;99.90
6810;DHT22;3443;48.812;9.112;2023-02-18T04:04:57;10.70;99.90
6810;DHT22;3443;48.812;9.112;2023-02-18T04:07:23;10.70;99.90
6810;DHT22;3443;48.812;9.112;2023-02-18T04:09:48;10.80;99.90
6810;DHT22;3443;48.812;9.112;2023-02-18T04:12:14;10.80;99.90
6810;DHT22;3443;48.812;9.112;2023-02-18T04:14:39;10.80;99.90
6810;DHT22;3443;48.812;9.112;2023-02-18T04:17:05;10.90;99.90
6810;DHT22;3443;48.812;9.112;2023-02-18T04:19:31;10.80;99.90
6810;DHT22;3443;48.812;9.112;2023-02-18T04:21:56;10.90;99.90
6810;DHT22;3443;48.812;9.112;2023-02-18T04:24:22;10.80;99.90
6810;DHT22;3443;48.812;9.112;2023-02-18T04:26:47;10.80;99.90
6810;DHT22;3443;48.812;9.112;2023-02-18T04:29:13;10.80;99.90
6810;DHT22;3443;48.812;9.112;2023-02-18T04:31:38;10.80;99.90
6810;DHT22;3443;48.812;9.112;2023-02-18T04:34:04;10.80;99.90
6810;DHT22;3443;48.812;9.112;2023-02-18T04:36:29;10.70;99.90
6810;DHT22;3443;48.812;9.112;2023-02-18T04:38:55;10.70;99.90
6810;DHT22;3443;48.812;9.112;2023-02-18T04:41:21;10.70;99.90
6810;DHT22;3443;48.812;9.112;2023-02-18T04:43:46;10.60;99.90
6810;DHT22;3443;48.812;9.112;2023-02-18T04:46:12;10.60;99.90
6810;DHT22;3443;48.812;9.112;2023-02-18T04:48:37;10.60;99.90
6810;DHT22;3443;48.812;9.112;2023-02-18T04:51:03;10.60;99.90
6810;DHT22;3443;48.812;9.112;2023-02-18T04:53:29;10.60;99.90
6810;DHT22;3443;48.812;9.112;2023-02-18T04:55:54;10.50;99.90
6810;DHT22;3443;48.812;9.112;2023-02-18T04:58:20;10.50;99.90
6810;DHT22;3443;48.812;9.112;2023-02-18T05:00:46;10.50;99.90
6810;DHT22;3443;48.812;9.112;2023-02-18T05:03:12;10.40;99.90
6810;DHT22;3443;48.812;9.112;2023-02-18T05:05:38;10.40;99.90
6810;DHT22;3443;48.812;9.112;2023-02-18T05:08:03;10.40;99.90
6810;DHT22;3443;48.812;9.112;2023-02-18T05:10:29;10.40;99.90
6810;DHT22;3443;48.812;9.112;2023-02-18T05:12:55;10.40;99.90
6810;DHT22;3443;48.812;9.112;2023-02-18T05:15:20;10.40;99.90
6810;DHT22;3443;48.812;9.112;2023-02-18T05:17:46;10.30;99.90
6810;DHT22;3443;48.812;9.112;2023-02-18T05:20:11;10.30;99.90
6810;DHT22;3443;48.812;9.112;2023-02-18T05:22:37;10.30;99.90
6810;DHT22;3443;48.812;9.112;2023-02-18T05:25:04;10.30;99.90
6810;DHT22;3443;48.812;9.112;2023-02-18T05:27:30;10.20;99.90
6810;DHT22;3443;48.812;9.112;2023-02-18T05:29:55;10.20;99.90
6810;DHT22;3443;48.812;9.112;2023-02-18T05:32:21;10.20;99.90
6810;DHT22;3443;48.812;9.112;2023-02-18T05:34:47;10.30;99.90
6810;DHT22;3443;48.812;9.112;2023-02-18T05:37:12;10.30;99.90
6810;DHT22;3443;48.812;9.112;2023-02-18T05:39:39;10.30;99.90
6810;DHT22;3443;48.812;9.112;2023-02-18T05:42:05;10.30;99.90
6810;DHT22;3443;48.812;9.112;2023-02-18T05:44:31;10.30;99.90
6810;DHT22;3443;48.812;9.112;2023-02-18T05:47:05;10.20;99.90
6810;DHT22;3443;48.812;9.112;2023-02-18T05:49:32;10.20;99.90
6810;DHT22;3443;48.812;9.112;2023-02-18T05:51:58;10.20;99.90
6810;DHT22;3443;48.812;9.112;2023-02-18T05:54:24;10.20;99.90
6810;DHT22;3443;48.812;9.112;2023-02-18T05:56:50;10.20;99.90
6810;DHT22;3443;48.812;9.112;2023-02-18T05:59:16;10.20;99.90
6810;DHT22;3443;48.812;9.112;2023-02-18T06:01:43;10.20;99.90
6810;DHT22;3443;48.812;9.112;2023-02-18T06:04:09;10.30;99.90
6810;DHT22;3443;48.812;9.112;2023-02-18T06:06:35;10.30;99.90
6810;DHT22;3443;48.812;9.112;2023-02-18T06:09:01;10.30;99.90
6810;DHT22;3443;48.812;9.112;2023-02-18T06:11:27;10.30;99.90
6810;DHT22;3443;48.812;9.112;2023-02-18T06:13:53;10.40;99.90
6810;DHT22;3443;48.812;9.112;2023-02-18T06:16:18;10.30;99.90
6810;DHT22;3443;48.812;9.112;2023-02-18T06:18:44;10.30;99.90
6810;DHT22;3443;48.812;9.112;2023-02-18T06:21:09;10.50;99.90
6810;DHT22;3443;48.812;9.112;2023-02-18T06:23:35;10.40;99.90
6810;DHT22;3443;48.812;9.112;2023-02-18T06:26:00;10.40;99.90
6810;DHT22;3443;48.812;9.112;2023-02-18T06:28:26;10.40;99.90
6810;DHT22;3443;48.812;9.112;2023-02-18T06:30:51;10.40;99.90
6810;DHT22;3443;48.812;9.112;2023-02-18T06:33:17;10.50;99.90
6810;DHT22;3443;48.812;9.112;2023-02-18T06:35:58;10.50;99.90
6810;DHT22;3443;48.812;9.112;2023-02-18T06:38:24;10.50;99.90
6810;DHT22;3443;48.812;9.112;2023-02-18T06:40:50;10.50;99.90
6810;DHT22;3443;48.812;9.112;2023-02-18T06:43:16;10.50;99.90
6810;DHT22;3443;48.812;9.112;2023-02-18T06:45:42;10.50;99.90
6810;DHT22;3443;48.812;9.112;2023-02-18T06:48:07;10.50;99.90
6810;DHT22;3443;48.812;9.112;2023-02-18T06:50:33;10.60;99.90
6810;DHT22;3443;48.812;9.112;2023-02-18T06:52:58;10.60;99.90
6810;DHT22;3443;48.812;9.112;2023-02-18T06:55:24;10.70;99.90
6810;DHT22;3443;48.812;9.112;2023-02-18T06:57:50;10.70;99.90
6810;DHT22;3443;48.812;9.112;2023-02-18T07:00:16;10.70;99.90
6810;DHT22;3443;48.812;9.112;2023-02-18T07:02:42;10.80;99.90
6810;DHT22;3443;48.812;9.112;2023-02-18T07:05:08;10.80;99.90
6810;DHT22;3443;48.812;9.112;2023-02-18T07:07:33;10.80;99.90
6810;DHT22;3443;48.812;9.112;2023-02-18T07:09:59;10.90;99.90
6810;DHT22;3443;48.812;9.112;2023-02-18T07:12:25;10.90;99.90
6810;DHT22;3443;48.812;9.112;2023-02-18T07:14:51;11.00;99.90
6810;DHT22;3443;48.812;9.112;2023-02-18T07:17:16;11.00;99.90
6810;DHT22;3443;48.812;9.112;2023-02-18T07:19:42;11.00;99.90
6810;DHT22;3443;48.812;9.112;2023-02-18T07:22:08;11.00;99.90
6810;DHT22;3443;48.812;9.112;2023-02-18T07:24:33;11.10;99.90
6810;DHT22;3443;48.812;9.112;2023-02-18T07:26:59;11.10;99.90
6810;DHT22;3443;48.812;9.112;2023-02-18T07:29:24;11.10;99.90
6810;DHT22;3443;48.812;9.112;2023-02-18T07:31:50;11.20;99.90
6810;DHT22;3443;48.812;9.112;2023-02-18T07:34:16;11.20;99.90
6810;DHT22;3443;48.812;9.112;2023-02-18T07:36:41;11.30;99.90
6810;DHT22;3443;48.812;9.112;2023-02-18T07:39:07;11.40;99.90
6810;DHT22;3443;48.812;9.112;2023-02-18T07:41:32;11.40;99.90
6810;DHT22;3443;48.812;9.112;2023-02-18T07:43:58;11.40;99.90
6810;DHT22;3443;48.812;9.112;2023-02-18T07:46:23;11.40;99.90
6810;DHT22;3443;48.812;9.112;2023-02-18T07:48:49;11.50;99.90
6810;DHT22;3443;48.812;9.112;2023-02-18T07:51:14;11.50;99.90
6810;DHT22;3443;48.812;9.112;2023-02-18T07:53:40;11.60;99.90
6810;DHT22;3443;48.812;9.112;2023-02-18T07:56:06;11.60;99.90
6810;DHT22;3443;48.812;9.112;2023-02-18T07:58:35;11.60;99.90
6810;DHT22;3443;48.812;9.112;2023-02-18T08:01:06;11.70;99.90
6810;DHT22;3443;48.812;9.112;2023-02-18T08:03:32;11.70;99.90
6810;DHT22;3443;48.812;9.112;2023-02-18T08:05:59;11.70;99.90
6810;DHT22;3443;48.812;9.112;2023-02-18T08:08:27;11.80;99.90
6810;DHT22;3443;48.812;9.112;2023-02-18T08:10:55;11.80;99.90
6810;DHT22;3443;48.812;9.112;2023-02-18T08:13:21;11.80;99.90
6810;DHT22;3443;48.812;9.112;2023-02-18T08:15:46;11.80;99.90
6810;DHT22;3443;48.812;9.112;2023-02-18T08:18:20;11.80;99.90
6810;DHT22;3443;48.812;9.112;2023-02-18T08:20:46;11.80;99.90
6810;DHT22;3443;48.812;9.112;2023-02-18T08:23:13;11.80;99.90
6810;DHT22;3443;48.812;9.112;2023-02-18T08:25:39;11.90;99.90
6810;DHT22;3443;48.812;9.112;2023-02-18T08:28:05;11.90;99.90
6810;DHT22;3443;48.812;9.112;2023-02-18T08:30:31;11.90;99.90
6810;DHT22;3443;48.812;9.112;2023-02-18T08:32:56;12.00;99.90
6810;DHT22;3443;48.812;9.112;2023-02-18T08:35:22;12.00;99.90
6810;DHT22;3443;48.812;9.112;2023-02-18T08:37:48;12.00;99.90
6810;DHT22;3443;48.812;9.112;2023-02-18T08:40:14;12.00;99.90
6810;DHT22;3443;48.812;9.112;2023-02-18T08:42:40;12.10;99.90
6810;DHT22;3443;48.812;9.112;2023-02-18T08:45:06;12.00;99.90
6810;DHT22;3443;48.812;9.112;2023-02-18T08:47:32;12.20;99.90
6810;DHT22;3443;48.812;9.112;2023-02-18T08:49:57;12.20;99.90
6810;DHT22;3443;48.812;9.112;2023-02-18T08:52:23;12.20;99.90
6810;DHT22;3443;48.812;9.112;2023-02-18T08:54:49;12.20;99.90
6810;DHT22;3443;48.812;9.112;2023-02-18T08:57:15;12.30;99.90
6810;DHT22;3443;48.812;9.112;2023-02-18T08:59:40;12.30;99.90
6810;DHT22;3443;48.812;9.112;2023-02-18T09:02:06;12.30;99.90
6810;DHT22;3443;48.812;9.112;2023-02-18T09:04:31;12.30;99.90
6810;DHT22;3443;48.812;9.112;2023-02-18T09:06:57;12.40;99.90
6810;DHT22;3443;48.812;9.112;2023-02-18T09:09:23;12.80;99.90
6810;DHT22;3443;48.812;9.112;2023-02-18T09:11:49;12.50;99.90
6810;DHT22;3443;48.812;9.112;2023-02-18T09:14:14;12.50;99.90
6810;DHT22;3443;48.812;9.112;2023-02-18T09:16:41;12.60;99.90
6810;DHT22;3443;48.812;9.112;2023-02-18T09:19:07;12.60;99.90
6810;DHT22;3443;48.812;9.112;2023-02-18T09:21:32;12.70;99.90
6810;DHT22;3443;48.812;9.112;2023-02-18T09:23:59;12.80;99.90
6810;DHT22;3443;48.812;9.112;2023-02-18T09:26:25;12.80;99.90
6810;DHT22;3443;48.812;9.112;2023-02-18T09:28:53;12.90;99.90
6810;DHT22;3443;48.812;9.112;2023-02-18T09:31:23;13.00;99.90
6810;DHT22;3443;48.812;9.112;2023-02-18T09:33:52;13.20;99.90
6810;DHT22;3443;48.812;9.112;2023-02-18T09:36:18;13.20;99.90
6810;DHT22;3443;48.812;9.112;2023-02-18T09:38:45;13.10;99.90
6810;DHT22;3443;48.812;9.112;2023-02-18T09:41:33;13.00;99.90
6810;DHT22;3443;48.812;9.112;2023-02-18T09:44:11;13.00;99.90
6810;DHT22;3443;48.812;9.112;2023-02-18T09:46:47;13.10;99.90
6810;DHT22;3443;48.812;9.112;2023-02-18T09:49:17;13.10;99.90
6810;DHT22;3443;48.812;9.112;2023-02-18T09:51:44;13.10;99.90
6810;DHT22;3443;48.812;9.112;2023-02-18T09:54:11;13.20;99.90
6810;DHT22;3443;48.812;9.112;2023-02-18T09:56:40;13.20;99.90
6810;DHT22;3443;48.812;9.112;2023-02-18T09:59:13;13.20;99.90
6810;DHT22;3443;48.812;9.112;2023-02-18T10:01:40;13.30;99.90
6810;DHT22;3443;48.812;9.112;2023-02-18T10:04:35;13.40;99.90
6810;DHT22;3443;48.812;9.112;2023-02-18T10:07:02;13.50;99.90
6810;DHT22;3443;48.812;9.112;2023-02-18T10:09:32;13.40;99.90
6810;DHT22;3443;48.812;9.112;2023-02-18T10:12:28;13.30;99.90
6810;DHT22;3443;48.812;9.112;2023-02-18T10:14:57;13.40;99.90
6810;DHT22;3443;48.812;9.112;2023-02-18T10:17:26;13.30;99.90
6810;DHT22;3443;48.812;9.112;2023-02-18T10:19:54;13.30;99.90
6810;DHT22;3443;48.812;9.112;2023-02-18T10:22:22;13.30;99.90
6810;DHT22;3443;48.812;9.112;2023-02-18T10:24:57;13.40;99.90
6810;DHT22;3443;48.812;9.112;2023-02-18T10:27:27;13.40;99.90
6810;DHT22;3443;48.812;9.112;2023-02-18T10:29:55;13.50;99.90
6810;DHT22;3443;48.812;9.112;2023-02-18T10:35:03;13.50;99.90
6810;DHT22;3443;48.812;9.112;2023-02-18T10:37:44;13.60;99.90
6810;DHT22;3443;48.812;9.112;2023-02-18T10:45:52;13.70;99.90
6810;DHT22;3443;48.812;9.112;2023-02-18T10:48:54;13.70;99.90
6810;DHT22;3443;48.812;9.112;2023-02-18T10:51:31;13.60;99.90
6810;DHT22;3443;48.812;9.112;2023-02-18T10:53:57;13.60;99.90
6810;DHT22;3443;48.812;9.112;2023-02-18T10:56:47;13.70;99.90
6810;DHT22;3443;48.812;9.112;2023-02-18T10:59:18;13.80;99.90
6810;DHT22;3443;48.812;9.112;2023-02-18T11:01:44;13.90;99.90
6810;DHT22;3443;48.812;9.112;2023-02-18T11:04:19;14.00;99.90
6810;DHT22;3443;48.812;9.112;2023-02-18T11:06:50;14.00;99.90
6810;DHT22;3443;48.812;9.112;2023-02-18T11:09:41;14.00;99.90
6810;DHT22;3443;48.812;9.112;2023-02-18T11:12:22;14.00;99.90
6810;DHT22;3443;48.812;9.112;2023-02-18T11:15:02;14.10;99.90
6810;DHT22;3443;48.812;9.112;2023-02-18T11:17:32;14.10;99.90
6810;DHT22;3443;48.812;9.112;2023-02-18T11:20:00;14.10;99.90
6810;DHT22;3443;48.812;9.112;2023-02-18T11:22:34;14.10;99.90
6810;DHT22;3443;48.812;9.112;2023-02-18T11:25:24;14.20;99.90
6810;DHT22;3443;48.812;9.112;2023-02-18T11:27:55;14.20;99.90
6810;DHT22;3443;48.812;9.112;2023-02-18T11:30:34;14.20;99.90
6810;DHT22;3443;48.812;9.112;2023-02-18T11:33:53;14.20;99.90
6810;DHT22;3443;48.812;9.112;2023-02-18T11:35:56;14.10;99.90
6810;DHT22;3443;48.812;9.112;2023-02-18T11:38:28;14.00;99.90
6810;DHT22;3443;48.812;9.112;2023-02-18T11:41:07;14.10;99.90
6810;DHT22;3443;48.812;9.112;2023-02-18T11:43:34;14.30;99.90
6810;DHT22;3443;48.812;9.112;2023-02-18T11:46:27;14.20;99.90
6810;DHT22;3443;48.812;9.112;2023-02-18T11:48:54;14.10;99.90
6810;DHT22;3443;48.812;9.112;2023-02-18T11:51:26;14.10;99.90
6810;DHT22;3443;48.812;9.112;2023-02-18T11:54:04;14.10;99.90
6810;DHT22;3443;48.812;9.112;2023-02-18T11:56:32;14.20;99.90
6810;DHT22;3443;48.812;9.112;2023-02-18T11:59:00;14.20;99.90
6810;DHT22;3443;48.812;9.112;2023-02-18T12:01:49;14.30;99.90
6810;DHT22;3443;48.812;9.112;2023-02-18T12:05:03;14.40;99.90
6810;DHT22;3443;48.812;9.112;2023-02-18T12:10:29;14.50;99.90
6810;DHT22;3443;48.812;9.112;2023-02-18T12:13:02;14.50;99.90
6810;DHT22;3443;48.812;9.112;2023-02-18T12:34:56;14.40;99.90
6810;DHT22;3443;48.812;9.112;2023-02-18T12:43:27;14.10;99.90
6810;DHT22;3443;48.812;9.112;2023-02-18T12:49:10;14.10;99.90
6810;DHT22;3443;48.812;9.112;2023-02-18T13:00:51;13.80;99.90
6810;DHT22;3443;48.812;9.112;2023-02-18T13:03:41;13.80;99.90
6810;DHT22;3443;48.812;9.112;2023-02-18T13:15:00;13.50;99.90
6810;DHT22;3443;48.812;9.112;2023-02-18T13:17:31;13.50;99.90
6810;DHT22;3443;48.812;9.112;2023-02-18T13:22:40;13.50;99.90
6810;DHT22;3443;48.812;9.112;2023-02-18T13:25:12;13.50;99.90
6810;DHT22;3443;48.812;9.112;2023-02-18T13:33:32;13.40;99.90
6810;DHT22;3443;48.812;9.112;2023-02-18T13:36:05;13.40;99.90
6810;DHT22;3443;48.812;9.112;2023-02-18T13:41:17;13.40;99.90
6810;DHT22;3443;48.812;9.112;2023-02-18T13:43:43;13.40;99.90
6810;DHT22;3443;48.812;9.112;2023-02-18T13:46:20;13.40;99.90
6810;DHT22;3443;48.812;9.112;2023-02-18T13:48:51;13.40;99.90
6810;DHT22;3443;48.812;9.112;2023-02-18T13:51:28;13.50;99.90
6810;DHT22;3443;48.812;9.112;2023-02-18T13:56:41;13.50;99.90
6810;DHT22;3443;48.812;9.112;2023-02-18T13:59:17;13.60;99.90
6810;DHT22;3443;48.812;9.112;2023-02-18T14:01:46;13.60;99.90
6810;DHT22;3443;48.812;9.112;2023-02-18T14:05:14;13.60;99.90
6810;DHT22;3443;48.812;9.112;2023-02-18T14:09:59;13.70;99.90
6810;DHT22;3443;48.812;9.112;2023-02-18T14:12:41;13.80;99.90
6810;DHT22;3443;48.812;9.112;2023-02-18T14:18:08;13.80;99.90
6810;DHT22;3443;48.812;9.112;2023-02-18T14:25:51;13.80;99.90
6810;DHT22;3443;48.812;9.112;2023-02-18T14:42:29;13.90;99.90
6810;DHT22;3443;48.812;9.112;2023-02-18T14:45:11;13.90;99.90
6810;DHT22;3443;48.812;9.112;2023-02-18T14:50:22;13.80;99.90
6810;DHT22;3443;48.812;9.112;2023-02-18T14:52:56;13.70;99.90
6810;DHT22;3443;48.812;9.112;2023-02-18T14:55:27;13.70;99.90
6810;DHT22;3443;48.812;9.112;2023-02-18T14:58:34;13.80;99.90
6810;DHT22;3443;48.812;9.112;2023-02-18T15:01:25;13.80;99.90
6810;DHT22;3443;48.812;9.112;2023-02-18T15:03:53;13.70;99.90
6810;DHT22;3443;48.812;9.112;2023-02-18T15:09:01;13.70;99.90
6810;DHT22;3443;48.812;9.112;2023-02-18T15:11:54;13.70;99.90
6810;DHT22;3443;48.812;9.112;2023-02-18T15:14:29;13.70;99.90
6810;DHT22;3443;48.812;9.112;2023-02-18T15:16:56;13.70;99.90
6810;DHT22;3443;48.812;9.112;2023-02-18T15:19:28;13.70;99.90
6810;DHT22;3443;48.812;9.112;2023-02-18T15:21:56;13.60;99.90
6810;DHT22;3443;48.812;9.112;2023-02-18T15:24:33;13.60;99.90
6810;DHT22;3443;48.812;9.112;2023-02-18T15:27:02;13.50;99.90
6810;DHT22;3443;48.812;9.112;2023-02-18T15:29:32;13.40;99.90
6810;DHT22;3443;48.812;9.112;2023-02-18T15:31:58;13.40;99.90
6810;DHT22;3443;48.812;9.112;2023-02-18T15:36:54;13.20;99.90
6810;DHT22;3443;48.812;9.112;2023-02-18T15:39:20;13.20;99.90
6810;DHT22;3443;48.812;9.112;2023-02-18T15:41:46;13.10;99.90
6810;DHT22;3443;48.812;9.112;2023-02-18T15:44:21;13.00;99.90
6810;DHT22;3443;48.812;9.112;2023-02-18T15:46:48;13.00;99.90
6810;DHT22;3443;48.812;9.112;2023-02-18T15:49:15;13.00;99.90
6810;DHT22;3443;48.812;9.112;2023-02-18T15:51:44;12.90;99.90
6810;DHT22;3443;48.812;9.112;2023-02-18T15:54:19;12.90;99.90
6810;DHT22;3443;48.812;9.112;2023-02-18T15:56:49;12.90;99.90
6810;DHT22;3443;48.812;9.112;2023-02-18T15:59:31;12.90;99.90
6810;DHT22;3443;48.812;9.112;2023-02-18T16:04:33;12.90;99.90
6810;DHT22;3443;48.812;9.112;2023-02-18T16:07:15;12.80;99.90
6810;DHT22;3443;48.812;9.112;2023-02-18T16:09:43;12.80;99.90
6810;DHT22;3443;48.812;9.112;2023-02-18T16:12:19;12.70;99.90
6810;DHT22;3443;48.812;9.112;2023-02-18T16:14:48;12.70;99.90
6810;DHT22;3443;48.812;9.112;2023-02-18T16:17:23;12.70;99.90
6810;DHT22;3443;48.812;9.112;2023-02-18T16:19:58;12.70;99.90
6810;DHT22;3443;48.812;9.112;2023-02-18T16:28:06;12.60;99.90
6810;DHT22;3443;48.812;9.112;2023-02-18T16:30:35;12.60;99.90
6810;DHT22;3443;48.812;9.112;2023-02-18T16:33:01;12.60;99.90
6810;DHT22;3443;48.812;9.112;2023-02-18T16:35:29;12.60;99.90
6810;DHT22;3443;48.812;9.112;2023-02-18T16:37:56;12.50;99.90
6810;DHT22;3443;48.812;9.112;2023-02-18T16:40:36;12.50;99.90
6810;DHT22;3443;48.812;9.112;2023-02-18T16:43:24;12.40;99.90
6810;DHT22;3443;48.812;9.112;2023-02-18T16:45:54;12.50;99.90
6810;DHT22;3443;48.812;9.112;2023-02-18T16:50:45;12.40;99.90
6810;DHT22;3443;48.812;9.112;2023-02-18T16:53:12;12.40;99.90
6810;DHT22;3443;48.812;9.112;2023-02-18T16:55:38;12.40;99.90
6810;DHT22;3443;48.812;9.112;2023-02-18T16:58:04;12.50;99.90
6810;DHT22;3443;48.812;9.112;2023-02-18T17:00:30;12.40;99.90
6810;DHT22;3443;48.812;9.112;2023-02-18T17:02:58;12.40;99.90
6810;DHT22;3443;48.812;9.112;2023-02-18T17:05:27;12.40;99.90
6810;DHT22;3443;48.812;9.112;2023-02-18T17:07:54;12.40;99.90
6810;DHT22;3443;48.812;9.112;2023-02-18T17:10:22;12.40;99.90
6810;DHT22;3443;48.812;9.112;2023-02-18T17:12:48;12.40;99.90
6810;DHT22;3443;48.812;9.112;2023-02-18T17:15:31;12.40;99.90
6810;DHT22;3443;48.812;9.112;2023-02-18T17:17:58;12.40;99.90
6810;DHT22;3443;48.812;9.112;2023-02-18T17:20:29;12.40;99.90
6810;DHT22;3443;48.812;9.112;2023-02-18T17:22:56;12.30;99.90
6810;DHT22;3443;48.812;9.112;2023-02-18T17:25:36;12.30;99.90
6810;DHT22;3443;48.812;9.112;2023-02-18T17:28:03;12.30;99.90
6810;DHT22;3443;48.812;9.112;2023-02-18T17:30:30;12.30;99.90
6810;DHT22;3443;48.812;9.112;2023-02-18T17:32:59;12.30;99.90
6810;DHT22;3443;48.812;9.112;2023-02-18T17:35:24;12.30;99.90
6810;DHT22;3443;48.812;9.112;2023-02-18T17:37:51;12.30;99.90
6810;DHT22;3443;48.812;9.112;2023-02-18T17:40:24;12.20;99.90
6810;DHT22;3443;48.812;9.112;2023-02-18T17:42:50;12.20;99.90
6810;DHT22;3443;48.812;9.112;2023-02-18T17:47:50;12.20;99.90
6810;DHT22;3443;48.812;9.112;2023-02-18T17:50:16;12.10;99.90
6810;DHT22;3443;48.812;9.112;2023-02-18T17:52:41;12.10;99.90
6810;DHT22;3443;48.812;9.112;2023-02-18T17:55:22;12.00;99.90
6810;DHT22;3443;48.812;9.112;2023-02-18T17:57:48;12.00;99.90
6810;DHT22;3443;48.812;9.112;2023-02-18T18:00:18;12.00;99.90
6810;DHT22;3443;48.812;9.112;2023-02-18T18:02:44;12.00;99.90
6810;DHT22;3443;48.812;9.112;2023-02-18T18:05:24;12.00;99.90
6810;DHT22;3443;48.812;9.112;2023-02-18T18:07:50;12.00;99.90
6810;DHT22;3443;48.812;9.112;2023-02-18T18:10:17;12.00;99.90
6810;DHT22;3443;48.812;9.112;2023-02-18T18:12:44;12.00;99.90
6810;DHT22;3443;48.812;9.112;2023-02-18T18:15:29;12.00;99.90
6810;DHT22;3443;48.812;9.112;2023-02-18T18:17:56;11.90;99.90
6810;DHT22;3443;48.812;9.112;2023-02-18T18:20:23;11.90;99.90
6810;DHT22;3443;48.812;9.112;2023-02-18T18:22:51;11.90;99.90
6810;DHT22;3443;48.812;9.112;2023-02-18T18:25:28;11.90;99.90
6810;DHT22;3443;48.812;9.112;2023-02-18T18:27:54;11.90;99.90
6810;DHT22;3443;48.812;9.112;2023-02-18T18:30:25;11.80;99.90
6810;DHT22;3443;48.812;9.112;2023-02-18T18:32:52;11.80;99.90
6810;DHT22;3443;48.812;9.112;2023-02-18T18:37:51;11.80;99.90
6810;DHT22;3443;48.812;9.112;2023-02-18T18:40:18;11.80;99.90
6810;DHT22;3443;48.812;9.112;2023-02-18T18:42:44;11.80;99.90
6810;DHT22;3443;48.812;9.112;2023-02-18T18:45:32;11.70;99.90
6810;DHT22;3443;48.812;9.112;2023-02-18T18:47:59;11.70;99.90
6810;DHT22;3443;48.812;9.112;2023-02-18T18:50:25;11.70;99.90